createdAt,value
2022-12-15T00:03:33.950Z,87.39
2022-12-15T00:07:35.724Z,86.97
2022-12-15T00:11:38.489Z,85.96
2022-12-15T00:15:39.951Z,86.22
2022-12-15T00:19:41.358Z,85.31
2022-12-15T00:23:42.756Z,85.29
2022-12-15T00:27:45.505Z,84.77
2022-12-15T00:31:46.982Z,84.58
2022-12-15T00:35:48.447Z,85.26
2022-12-15T00:39:49.851Z,84.68
2022-12-15T00:43:52.642Z,84.94
2022-12-15T00:47:54.028Z,84.91
2022-12-15T00:51:55.434Z,84.69
2022-12-15T00:55:56.789Z,84.71
2022-12-15T00:59:59.554Z,84.49
2022-12-15T01:04:00.957Z,84.38
2022-12-15T01:08:02.399Z,85.33
2022-12-15T01:12:03.983Z,84.63
2022-12-15T01:16:10.880Z,84.51
2022-12-15T01:20:12.402Z,85.06
2022-12-15T01:24:13.799Z,85.47
2022-12-15T01:28:15.196Z,83.17
2022-12-15T01:32:17.983Z,84.53
2022-12-15T01:36:19.631Z,85.23
2022-12-15T01:40:21.162Z,84.96
2022-12-15T01:44:24.324Z,85.59
2022-12-15T01:48:33.798Z,83.84
2022-12-15T01:52:35.364Z,85.48
2022-12-15T01:56:38.232Z,85.55
2022-12-15T02:00:39.681Z,85.51
2022-12-15T02:04:42.599Z,83.60
2022-12-15T02:08:46.472Z,84.50
2022-12-15T02:12:54.442Z,84.40
2022-12-15T02:17:02.005Z,85.50
2022-12-15T02:21:08.481Z,85.53
2022-12-15T02:25:18.189Z,85.63
2022-12-15T02:29:30.104Z,85.66
2022-12-15T02:33:33.567Z,86.20
2022-12-15T02:37:36.289Z,86.00
2022-12-15T02:41:38.606Z,85.33
2022-12-15T02:45:47.024Z,85.77
2022-12-15T02:49:55.984Z,86.06
2022-12-15T02:54:14.278Z,85.84
2022-12-15T02:58:21.208Z,84.97
2022-12-15T03:02:24.373Z,85.20
2022-12-15T03:06:27.279Z,85.45
2022-12-15T03:10:28.819Z,85.47
2022-12-15T03:14:30.263Z,85.25
2022-12-15T03:18:31.658Z,85.03
2022-12-15T03:22:34.409Z,84.08
2022-12-15T03:26:35.798Z,83.74
2022-12-15T03:30:37.227Z,83.13
2022-12-15T03:34:38.631Z,84.33
2022-12-15T03:38:41.455Z,85.12
2022-12-15T03:42:44.269Z,86.03
2022-12-15T03:46:45.680Z,84.84
2022-12-15T03:50:47.639Z,84.13
2022-12-15T03:54:50.393Z,84.63
2022-12-15T03:58:51.788Z,83.92
2022-12-15T04:02:53.518Z,83.69
2022-12-15T04:06:55.047Z,83.41
2022-12-15T04:10:57.795Z,84.60
2022-12-15T04:14:59.291Z,84.56
2022-12-15T04:19:00.708Z,84.98
2022-12-15T04:23:02.119Z,83.95
2022-12-15T04:27:04.922Z,84.31
2022-12-15T04:31:07.802Z,84.48
2022-12-15T04:35:10.570Z,85.27
2022-12-15T04:39:11.967Z,85.79
2022-12-15T04:43:14.727Z,84.60
2022-12-15T04:47:16.138Z,84.51
2022-12-15T04:51:17.521Z,85.28
2022-12-15T04:55:18.907Z,86.18
2022-12-15T04:59:21.633Z,85.17
2022-12-15T05:03:23.031Z,83.82
2022-12-15T05:07:24.452Z,84.03
2022-12-15T05:11:25.808Z,84.66
2022-12-15T05:15:28.610Z,85.03
2022-12-15T05:19:30.029Z,85.25
2022-12-15T05:23:31.746Z,86.64
2022-12-15T05:27:33.524Z,85.98
2022-12-15T05:31:36.324Z,85.94
2022-12-15T05:35:37.746Z,85.93
2022-12-15T05:39:39.095Z,84.67
2022-12-15T05:43:40.453Z,85.18
2022-12-15T05:47:43.210Z,86.29
2022-12-15T05:51:45.478Z,86.70
2022-12-15T05:55:46.824Z,86.45
2022-12-15T05:59:48.169Z,86.88
2022-12-15T06:03:50.950Z,86.61
2022-12-15T06:07:52.308Z,87.13
2022-12-15T06:11:53.650Z,86.67
2022-12-15T06:15:55.691Z,87.08
2022-12-15T06:19:58.407Z,86.77
2022-12-15T06:23:59.754Z,85.77
2022-12-15T06:28:02.047Z,84.72
2022-12-15T06:32:03.669Z,86.36
2022-12-15T06:36:08.029Z,86.64
2022-12-15T06:40:09.985Z,86.82
2022-12-15T06:44:13.070Z,86.08
2022-12-15T06:48:14.400Z,86.99
2022-12-15T06:52:17.255Z,86.65
2022-12-15T06:56:20.040Z,86.42
2022-12-15T07:00:21.443Z,86.42
2022-12-15T07:04:22.969Z,85.50
2022-12-15T07:08:30.812Z,85.60
2022-12-15T07:12:33.647Z,86.58
2022-12-15T07:16:35.171Z,86.52
2022-12-15T07:20:36.584Z,85.87
2022-12-15T07:24:39.282Z,86.24
2022-12-15T07:28:40.692Z,86.84
2022-12-15T07:32:42.067Z,87.76
2022-12-15T07:36:48.510Z,86.79
2022-12-15T07:40:54.418Z,86.84
2022-12-15T07:44:55.969Z,85.87
2022-12-15T07:48:57.317Z,85.15
2022-12-15T07:52:58.699Z,85.63
2022-12-15T07:57:01.449Z,85.40
2022-12-15T08:01:04.355Z,85.00
2022-12-15T08:05:06.328Z,84.05
2022-12-15T08:09:07.716Z,84.30
2022-12-15T08:13:10.516Z,83.94
2022-12-15T08:17:11.933Z,82.80
2022-12-15T08:21:13.371Z,83.26
2022-12-15T08:25:14.767Z,83.54
2022-12-15T08:29:49.592Z,84.23
2022-12-15T08:33:39.182Z,84.19
2022-12-15T08:37:40.581Z,83.12
2022-12-15T08:41:41.939Z,83.89
2022-12-15T08:45:44.737Z,83.12
2022-12-15T08:49:46.151Z,81.91
2022-12-15T08:53:47.898Z,80.82
2022-12-15T08:57:49.529Z,81.63
2022-12-15T09:01:52.444Z,81.51
2022-12-15T09:05:53.999Z,81.40
2022-12-15T09:09:55.370Z,80.81
2022-12-15T09:13:56.784Z,80.26
2022-12-15T09:17:59.531Z,79.75
2022-12-15T09:22:01.243Z,80.38
2022-12-15T09:26:03.596Z,80.47
2022-12-15T09:30:05.462Z,79.69
2022-12-15T09:34:12.776Z,79.26
2022-12-15T09:38:14.165Z,79.75
2022-12-15T09:42:23.738Z,80.08
2022-12-15T09:46:34.019Z,78.95
2022-12-15T09:50:37.891Z,78.39
2022-12-15T09:54:39.853Z,78.97
2022-12-15T09:58:44.281Z,79.27
2022-12-15T10:02:55.426Z,79.40
2022-12-15T10:07:03.094Z,79.54
2022-12-15T10:11:06.433Z,79.74
2022-12-15T10:15:13.603Z,79.08
2022-12-15T10:19:19.557Z,79.97
2022-12-15T10:23:22.408Z,78.70
2022-12-15T10:27:31.443Z,78.01
2022-12-15T10:31:35.436Z,78.08
2022-12-15T10:35:36.966Z,77.14
2022-12-15T10:39:40.978Z,75.43
2022-12-15T10:43:43.010Z,77.23
2022-12-15T10:47:56.656Z,77.08
2022-12-15T10:51:58.759Z,78.09
2022-12-15T10:56:01.604Z,77.44
2022-12-15T11:00:17.888Z,77.07
2022-12-15T11:04:26.379Z,77.60
2022-12-15T11:08:28.977Z,76.94
2022-12-15T11:12:31.730Z,77.60
2022-12-15T11:16:33.226Z,75.87
2022-12-15T11:20:37.279Z,76.64
2022-12-15T11:24:40.223Z,77.69
2022-12-15T11:28:45.933Z,77.69
2022-12-15T11:32:49.925Z,75.91
2022-12-15T11:37:01.933Z,76.53
2022-12-15T11:41:08.402Z,77.64
2022-12-15T11:45:17.166Z,77.72
2022-12-15T11:49:37.593Z,77.85
2022-12-15T11:53:51.967Z,77.60
2022-12-15T11:58:02.296Z,76.42
2022-12-15T12:02:16.533Z,77.81
2022-12-15T12:06:20.521Z,76.94
2022-12-15T12:10:27.741Z,76.73
2022-12-15T12:14:36.877Z,77.68
2022-12-15T12:18:42.307Z,77.52
2022-12-15T12:22:47.188Z,76.72
2022-12-15T12:26:56.699Z,78.22
2022-12-15T12:30:59.883Z,77.71
2022-12-15T12:35:32.093Z,76.16
2022-12-15T12:39:25.857Z,76.49
2022-12-15T12:43:31.458Z,76.33
2022-12-15T12:47:35.983Z,76.22
2022-12-15T12:51:40.095Z,77.32
2022-12-15T12:55:42.428Z,78.06
2022-12-15T12:59:57.107Z,76.83
2022-12-15T13:04:05.703Z,76.59
2022-12-15T13:08:18.721Z,76.85
2022-12-15T13:17:24.922Z,77.29
2022-12-15T13:21:48.887Z,78.66
2022-12-15T13:26:11.250Z,79.42
2022-12-15T13:30:15.026Z,78.72
2022-12-15T13:34:27.177Z,79.13
2022-12-15T13:38:51.453Z,79.32
2022-12-15T13:42:58.819Z,79.11
2022-12-15T13:47:05.901Z,78.42
2022-12-15T13:51:28.192Z,78.63
2022-12-15T13:55:34.836Z,79.18
2022-12-15T13:59:41.569Z,79.13
2022-12-15T14:03:55.894Z,79.22
2022-12-15T14:07:59.119Z,78.57
2022-12-15T14:12:01.459Z,78.45
2022-12-15T14:16:07.153Z,78.77
2022-12-15T14:20:12.762Z,78.90
2022-12-15T14:24:38.103Z,79.38
2022-12-15T14:28:41.134Z,79.39
2022-12-15T14:32:44.881Z,79.70
2022-12-15T14:36:47.231Z,80.20
2022-12-15T14:40:54.135Z,80.45
2022-12-15T14:44:58.019Z,80.34
2022-12-15T14:49:03.240Z,80.63
2022-12-15T14:53:07.233Z,80.63
2022-12-15T14:57:13.174Z,80.57
2022-12-15T15:01:22.219Z,81.51
2022-12-15T15:03:12.979Z,77.86
2022-12-15T15:05:26.318Z,81.67
2022-12-15T15:09:29.001Z,82.69
2022-12-15T15:13:40.173Z,82.78
2022-12-15T15:17:45.199Z,83.11
2022-12-15T15:21:48.104Z,84.01
2022-12-15T15:25:50.017Z,82.99
2022-12-15T15:29:51.832Z,81.96
2022-12-15T15:33:53.271Z,82.13
2022-12-15T15:37:59.082Z,83.58
2022-12-15T15:42:04.286Z,83.29
2022-12-15T15:46:07.025Z,82.90
2022-12-15T15:50:11.594Z,84.65
2022-12-15T15:54:16.273Z,84.51
2022-12-15T15:58:17.784Z,84.44
2022-12-15T16:02:19.319Z,84.88
2022-12-15T16:06:21.525Z,84.37
2022-12-15T16:10:24.529Z,84.10
2022-12-15T16:14:25.948Z,84.17
2022-12-15T16:18:27.307Z,85.83
2022-12-15T16:22:28.715Z,84.97
2022-12-15T16:26:32.257Z,85.68
2022-12-15T16:30:33.828Z,85.00
2022-12-15T16:34:35.362Z,84.81
2022-12-15T16:38:37.103Z,85.50
2022-12-15T16:42:40.041Z,84.98
2022-12-15T16:46:41.592Z,85.09
2022-12-15T16:50:44.711Z,85.92
2022-12-15T16:54:46.984Z,86.47
2022-12-15T16:58:57.382Z,86.49
2022-12-15T17:03:04.382Z,86.63
2022-12-15T17:07:05.952Z,86.20
2022-12-15T17:11:11.977Z,86.21
2022-12-15T17:15:17.896Z,86.84
2022-12-15T17:19:21.318Z,86.83
2022-12-15T17:23:23.323Z,87.00
2022-12-15T17:27:25.988Z,87.59
2022-12-15T17:31:34.640Z,86.95
2022-12-15T17:35:36.859Z,87.04
2022-12-15T17:39:38.328Z,86.91
2022-12-15T17:43:40.489Z,86.15
2022-12-15T17:47:43.625Z,86.66
2022-12-15T17:51:46.234Z,86.38
2022-12-15T17:55:48.111Z,86.56
2022-12-15T17:59:49.483Z,86.73
2022-12-15T18:03:52.295Z,86.44
2022-12-15T18:07:55.040Z,86.67
2022-12-15T18:11:56.621Z,86.36
2022-12-15T18:15:58.368Z,83.38
2022-12-15T18:20:01.159Z,83.21
2022-12-15T18:24:02.537Z,83.74
2022-12-15T18:28:05.632Z,83.59
2022-12-15T18:32:09.327Z,82.20
2022-12-15T18:36:12.277Z,83.42
2022-12-15T18:40:14.634Z,81.94
2022-12-15T18:44:19.767Z,82.30
2022-12-15T18:48:22.494Z,81.83
2022-12-15T18:52:30.029Z,81.70
2022-12-15T18:56:34.445Z,82.12
2022-12-15T19:00:36.047Z,81.57
2022-12-15T19:04:37.480Z,81.16
2022-12-15T19:08:40.508Z,80.36
2022-12-15T19:12:41.889Z,80.31
2022-12-15T19:16:43.329Z,81.42
2022-12-15T19:20:44.778Z,81.39
2022-12-15T19:24:47.581Z,80.54
2022-12-15T19:28:49.017Z,79.90
2022-12-15T19:32:50.375Z,80.92
2022-12-15T19:36:51.748Z,82.15
2022-12-15T19:40:54.968Z,82.35
2022-12-15T19:44:56.352Z,81.56
2022-12-15T19:48:57.762Z,81.17
2022-12-15T19:53:00.807Z,81.96
2022-12-15T19:57:03.548Z,82.44
2022-12-15T20:01:06.653Z,81.26
2022-12-15T20:05:08.297Z,80.60
2022-12-15T20:09:10.334Z,80.03
2022-12-15T20:13:13.607Z,79.76
2022-12-15T20:17:15.197Z,80.42
2022-12-15T20:21:22.089Z,80.71
2022-12-15T20:25:25.913Z,81.46
2022-12-15T20:29:30.310Z,81.13
2022-12-15T20:33:31.986Z,81.27
2022-12-15T20:37:33.750Z,80.05
2022-12-15T20:41:35.299Z,81.18
2022-12-15T20:45:38.195Z,81.41
2022-12-15T20:49:39.606Z,82.11
2022-12-15T20:53:41.004Z,80.66
2022-12-15T20:57:42.458Z,80.33
2022-12-15T21:01:45.673Z,79.25
2022-12-15T21:05:48.099Z,80.09
2022-12-15T21:09:49.488Z,80.83
2022-12-15T21:13:52.420Z,81.46
2022-12-15T21:18:11.250Z,80.73
2022-12-15T21:22:18.778Z,81.51
2022-12-15T21:26:21.046Z,81.32
2022-12-15T21:30:22.963Z,81.39
2022-12-15T21:34:25.680Z,81.39
2022-12-15T21:38:30.048Z,81.21
2022-12-15T21:42:33.925Z,81.36
2022-12-15T21:46:35.367Z,81.43
2022-12-15T21:50:38.579Z,81.60
2022-12-15T21:54:40.104Z,82.00
2022-12-15T21:58:41.839Z,82.37
2022-12-15T22:02:43.496Z,82.49
2022-12-15T22:06:50.506Z,81.67
2022-12-15T22:10:52.180Z,81.40
2022-12-15T22:14:53.571Z,81.64
2022-12-15T22:18:55.995Z,81.88
2022-12-15T22:22:58.680Z,82.84
2022-12-15T22:27:00.100Z,82.20
2022-12-15T22:31:03.037Z,82.68
2022-12-15T22:35:11.651Z,82.29
2022-12-15T22:39:14.417Z,81.73
2022-12-15T22:43:19.553Z,82.90
2022-12-15T22:47:20.915Z,82.65
2022-12-15T22:51:22.273Z,82.88
2022-12-15T22:55:24.982Z,83.03
2022-12-15T22:59:28.058Z,83.43
2022-12-15T23:03:29.818Z,83.75
2022-12-15T23:07:31.472Z,84.14
2022-12-15T23:11:34.173Z,82.91
2022-12-15T23:15:35.743Z,84.02
2022-12-15T23:19:37.100Z,84.06
2022-12-15T23:23:38.553Z,84.43
2022-12-15T23:27:41.311Z,84.24
2022-12-15T23:31:42.802Z,83.85
2022-12-15T23:35:44.261Z,83.51
2022-12-15T23:39:45.610Z,84.85
2022-12-15T23:43:48.398Z,85.04
2022-12-15T23:47:49.757Z,85.66
2022-12-15T23:51:51.154Z,86.05
2022-12-15T23:55:53.323Z,86.17
2022-12-15T23:59:56.259Z,86.72
